sensor_id;sensor_type;location;lat;lon;timestamp;P1;durP1;ratioP1;P2;durP2;ratioP2
68144;SDS011;55400;51.824;-0.196;2023-04-15T00:03:15;2.80;;;2.10;;
68144;SDS011;55400;51.824;-0.196;2023-04-15T00:07:15;4.50;;;2.20;;
68144;SDS011;55400;51.824;-0.196;2023-04-15T00:11:16;3.50;;;2.30;;
68144;SDS011;55400;51.824;-0.196;2023-04-15T00:15:15;4.90;;;2.30;;
68144;SDS011;55400;51.824;-0.196;2023-04-15T00:19:15;3.60;;;2.30;;
68144;SDS011;55400;51.824;-0.196;2023-04-15T00:23:15;3.00;;;2.00;;
68144;SDS011;55400;51.824;-0.196;2023-04-15T00:27:15;4.30;;;2.40;;
68144;SDS011;55400;51.824;-0.196;2023-04-15T00:31:15;3.20;;;2.30;;
68144;SDS011;55400;51.824;-0.196;2023-04-15T00:39:15;3.70;;;2.40;;
68144;SDS011;55400;51.824;-0.196;2023-04-15T00:43:15;3.00;;;2.10;;
68144;SDS011;55400;51.824;-0.196;2023-04-15T00:47:16;3.20;;;2.10;;
68144;SDS011;55400;51.824;-0.196;2023-04-15T00:51:15;2.80;;;2.30;;
68144;SDS011;55400;51.824;-0.196;2023-04-15T00:55:15;2.40;;;2.20;;
68144;SDS011;55400;51.824;-0.196;2023-04-15T00:59:16;5.30;;;2.20;;
68144;SDS011;55400;51.824;-0.196;2023-04-15T01:03:15;3.70;;;2.40;;
68144;SDS011;55400;51.824;-0.196;2023-04-15T01:07:15;6.00;;;2.40;;
68144;SDS011;55400;51.824;-0.196;2023-04-15T01:11:16;2.90;;;2.50;;
68144;SDS011;55400;51.824;-0.196;2023-04-15T01:15:15;5.30;;;2.70;;
68144;SDS011;55400;51.824;-0.196;2023-04-15T01:27:15;2.20;;;2.00;;
68144;SDS011;55400;51.824;-0.196;2023-04-15T01:31:15;2.40;;;2.10;;
68144;SDS011;55400;51.824;-0.196;2023-04-15T01:35:16;2.80;;;2.20;;
68144;SDS011;55400;51.824;-0.196;2023-04-15T01:39:15;2.70;;;2.00;;
68144;SDS011;55400;51.824;-0.196;2023-04-15T01:43:15;3.20;;;2.30;;
68144;SDS011;55400;51.824;-0.196;2023-04-15T01:47:15;5.00;;;2.60;;
68144;SDS011;55400;51.824;-0.196;2023-04-15T01:51:16;3.50;;;2.20;;
68144;SDS011;55400;51.824;-0.196;2023-04-15T01:55:15;2.80;;;2.30;;
68144;SDS011;55400;51.824;-0.196;2023-04-15T01:59:15;2.30;;;2.10;;
68144;SDS011;55400;51.824;-0.196;2023-04-15T02:03:16;3.60;;;2.40;;
68144;SDS011;55400;51.824;-0.196;2023-04-15T02:07:15;4.90;;;2.60;;
68144;SDS011;55400;51.824;-0.196;2023-04-15T02:11:15;3.50;;;2.40;;
68144;SDS011;55400;51.824;-0.196;2023-04-15T02:15:16;3.80;;;2.60;;
68144;SDS011;55400;51.824;-0.196;2023-04-15T02:19:15;2.70;;;2.40;;
68144;SDS011;55400;51.824;-0.196;2023-04-15T02:23:16;4.50;;;2.60;;
68144;SDS011;55400;51.824;-0.196;2023-04-15T02:27:16;3.50;;;2.70;;
68144;SDS011;55400;51.824;-0.196;2023-04-15T02:31:16;3.90;;;2.60;;
68144;SDS011;55400;51.824;-0.196;2023-04-15T02:35:16;3.90;;;2.80;;
68144;SDS011;55400;51.824;-0.196;2023-04-15T02:39:16;4.10;;;2.70;;
68144;SDS011;55400;51.824;-0.196;2023-04-15T02:43:16;2.90;;;2.70;;
68144;SDS011;55400;51.824;-0.196;2023-04-15T02:47:16;3.60;;;2.80;;
68144;SDS011;55400;51.824;-0.196;2023-04-15T02:51:17;3.10;;;2.80;;
68144;SDS011;55400;51.824;-0.196;2023-04-15T02:55:16;3.60;;;2.70;;
68144;SDS011;55400;51.824;-0.196;2023-04-15T02:59:15;2.60;;;2.40;;
68144;SDS011;55400;51.824;-0.196;2023-04-15T03:07:16;2.90;;;2.50;;
68144;SDS011;55400;51.824;-0.196;2023-04-15T03:15:16;5.20;;;2.80;;
68144;SDS011;55400;51.824;-0.196;2023-04-15T03:19:16;3.10;;;2.50;;
68144;SDS011;55400;51.824;-0.196;2023-04-15T03:23:16;2.90;;;2.60;;
68144;SDS011;55400;51.824;-0.196;2023-04-15T03:27:16;2.70;;;2.50;;
68144;SDS011;55400;51.824;-0.196;2023-04-15T03:31:16;6.10;;;2.60;;
68144;SDS011;55400;51.824;-0.196;2023-04-15T03:35:16;3.40;;;3.00;;
68144;SDS011;55400;51.824;-0.196;2023-04-15T03:39:16;4.40;;;2.90;;
68144;SDS011;55400;51.824;-0.196;2023-04-15T03:43:16;3.40;;;3.10;;
68144;SDS011;55400;51.824;-0.196;2023-04-15T03:47:16;5.50;;;3.30;;
68144;SDS011;55400;51.824;-0.196;2023-04-15T03:51:16;6.70;;;3.00;;
68144;SDS011;55400;51.824;-0.196;2023-04-15T03:55:16;4.10;;;3.30;;
68144;SDS011;55400;51.824;-0.196;2023-04-15T03:59:16;3.80;;;3.40;;
68144;SDS011;55400;51.824;-0.196;2023-04-15T04:07:16;4.50;;;3.50;;
68144;SDS011;55400;51.824;-0.196;2023-04-15T04:11:16;4.10;;;3.30;;
68144;SDS011;55400;51.824;-0.196;2023-04-15T04:19:16;4.60;;;3.10;;
68144;SDS011;55400;51.824;-0.196;2023-04-15T04:23:16;3.40;;;3.10;;
68144;SDS011;55400;51.824;-0.196;2023-04-15T04:27:16;3.00;;;2.70;;
68144;SDS011;55400;51.824;-0.196;2023-04-15T04:31:17;2.80;;;2.60;;
68144;SDS011;55400;51.824;-0.196;2023-04-15T04:35:16;3.40;;;2.60;;
68144;SDS011;55400;51.824;-0.196;2023-04-15T04:39:16;4.10;;;2.50;;
68144;SDS011;55400;51.824;-0.196;2023-04-15T04:43:16;2.50;;;2.30;;
68144;SDS011;55400;51.824;-0.196;2023-04-15T04:51:16;2.60;;;2.40;;
68144;SDS011;55400;51.824;-0.196;2023-04-15T04:55:16;2.20;;;2.00;;
68144;SDS011;55400;51.824;-0.196;2023-04-15T04:59:16;2.30;;;2.10;;
68144;SDS011;55400;51.824;-0.196;2023-04-15T05:03:16;2.50;;;2.20;;
68144;SDS011;55400;51.824;-0.196;2023-04-15T05:07:16;2.90;;;2.20;;
68144;SDS011;55400;51.824;-0.196;2023-04-15T05:11:16;2.10;;;1.90;;
68144;SDS011;55400;51.824;-0.196;2023-04-15T05:15:16;2.30;;;2.00;;
68144;SDS011;55400;51.824;-0.196;2023-04-15T05:27:16;2.40;;;2.10;;
68144;SDS011;55400;51.824;-0.196;2023-04-15T05:31:16;2.40;;;2.20;;
68144;SDS011;55400;51.824;-0.196;2023-04-15T05:35:16;2.50;;;2.30;;
68144;SDS011;55400;51.824;-0.196;2023-04-15T05:39:16;2.80;;;2.20;;
68144;SDS011;55400;51.824;-0.196;2023-04-15T05:47:16;2.40;;;2.20;;
68144;SDS011;55400;51.824;-0.196;2023-04-15T05:51:16;3.20;;;2.50;;
68144;SDS011;55400;51.824;-0.196;2023-04-15T05:59:16;3.30;;;2.40;;
68144;SDS011;55400;51.824;-0.196;2023-04-15T06:03:16;3.70;;;2.30;;
68144;SDS011;55400;51.824;-0.196;2023-04-15T06:07:16;5.10;;;3.00;;
68144;SDS011;55400;51.824;-0.196;2023-04-15T06:19:16;3.70;;;3.20;;
68144;SDS011;55400;51.824;-0.196;2023-04-15T06:23:16;4.80;;;3.30;;
68144;SDS011;55400;51.824;-0.196;2023-04-15T06:27:16;5.70;;;3.30;;
68144;SDS011;55400;51.824;-0.196;2023-04-15T06:31:16;6.00;;;3.60;;
68144;SDS011;55400;51.824;-0.196;2023-04-15T06:35:16;5.30;;;3.50;;
68144;SDS011;55400;51.824;-0.196;2023-04-15T06:39:16;4.10;;;3.40;;
68144;SDS011;55400;51.824;-0.196;2023-04-15T06:43:16;3.70;;;3.30;;
68144;SDS011;55400;51.824;-0.196;2023-04-15T06:47:16;4.70;;;3.40;;
68144;SDS011;55400;51.824;-0.196;2023-04-15T06:55:16;6.10;;;3.40;;
68144;SDS011;55400;51.824;-0.196;2023-04-15T06:59:16;5.30;;;3.60;;
68144;SDS011;55400;51.824;-0.196;2023-04-15T07:03:16;4.00;;;3.40;;
68144;SDS011;55400;51.824;-0.196;2023-04-15T07:07:16;5.90;;;3.60;;
68144;SDS011;55400;51.824;-0.196;2023-04-15T07:19:17;5.40;;;4.50;;
68144;SDS011;55400;51.824;-0.196;2023-04-15T07:27:16;7.50;;;4.90;;
68144;SDS011;55400;51.824;-0.196;2023-04-15T07:31:16;7.10;;;5.00;;
68144;SDS011;55400;51.824;-0.196;2023-04-15T07:35:16;8.00;;;5.30;;
68144;SDS011;55400;51.824;-0.196;2023-04-15T07:39:16;8.30;;;5.60;;
68144;SDS011;55400;51.824;-0.196;2023-04-15T07:47:17;6.40;;;5.10;;
68144;SDS011;55400;51.824;-0.196;2023-04-15T07:51:16;6.40;;;5.10;;
68144;SDS011;55400;51.824;-0.196;2023-04-15T07:55:17;7.20;;;5.20;;
68144;SDS011;55400;51.824;-0.196;2023-04-15T07:59:16;9.60;;;5.20;;
68144;SDS011;55400;51.824;-0.196;2023-04-15T08:03:17;7.10;;;4.80;;
68144;SDS011;55400;51.824;-0.196;2023-04-15T08:11:16;6.60;;;4.30;;
68144;SDS011;55400;51.824;-0.196;2023-04-15T08:15:16;6.20;;;4.50;;
68144;SDS011;55400;51.824;-0.196;2023-04-15T08:19:16;7.30;;;4.30;;
68144;SDS011;55400;51.824;-0.196;2023-04-15T08:23:16;5.40;;;4.30;;
68144;SDS011;55400;51.824;-0.196;2023-04-15T08:27:17;7.30;;;4.40;;
68144;SDS011;55400;51.824;-0.196;2023-04-15T08:31:17;5.90;;;4.10;;
68144;SDS011;55400;51.824;-0.196;2023-04-15T08:35:17;6.50;;;4.60;;
68144;SDS011;55400;51.824;-0.196;2023-04-15T08:39:17;7.00;;;4.70;;
68144;SDS011;55400;51.824;-0.196;2023-04-15T08:43:21;9.70;;;4.50;;
68144;SDS011;55400;51.824;-0.196;2023-04-15T08:47:19;5.90;;;4.60;;
68144;SDS011;55400;51.824;-0.196;2023-04-15T08:51:17;7.00;;;4.80;;
68144;SDS011;55400;51.824;-0.196;2023-04-15T08:55:17;7.90;;;4.60;;
68144;SDS011;55400;51.824;-0.196;2023-04-15T08:59:17;7.00;;;5.20;;
68144;SDS011;55400;51.824;-0.196;2023-04-15T09:03:17;7.70;;;5.00;;
68144;SDS011;55400;51.824;-0.196;2023-04-15T09:07:17;9.30;;;5.60;;
68144;SDS011;55400;51.824;-0.196;2023-04-15T09:11:17;8.50;;;5.90;;
68144;SDS011;55400;51.824;-0.196;2023-04-15T09:15:17;11.70;;;5.70;;
68144;SDS011;55400;51.824;-0.196;2023-04-15T09:19:21;10.30;;;6.20;;
68144;SDS011;55400;51.824;-0.196;2023-04-15T09:23:17;9.70;;;6.20;;
68144;SDS011;55400;51.824;-0.196;2023-04-15T09:27:17;10.60;;;6.70;;
68144;SDS011;55400;51.824;-0.196;2023-04-15T09:31:17;10.40;;;6.50;;
68144;SDS011;55400;51.824;-0.196;2023-04-15T09:35:17;9.20;;;6.10;;
68144;SDS011;55400;51.824;-0.196;2023-04-15T09:39:17;8.50;;;5.90;;
68144;SDS011;55400;51.824;-0.196;2023-04-15T09:43:17;10.70;;;6.00;;
68144;SDS011;55400;51.824;-0.196;2023-04-15T09:47:26;9.80;;;6.10;;
68144;SDS011;55400;51.824;-0.196;2023-04-15T09:51:17;10.50;;;6.10;;
68144;SDS011;55400;51.824;-0.196;2023-04-15T09:55:17;10.90;;;6.40;;
68144;SDS011;55400;51.824;-0.196;2023-04-15T09:59:17;10.60;;;6.00;;
68144;SDS011;55400;51.824;-0.196;2023-04-15T10:03:19;9.00;;;5.50;;
68144;SDS011;55400;51.824;-0.196;2023-04-15T10:07:20;8.90;;;5.70;;
68144;SDS011;55400;51.824;-0.196;2023-04-15T10:11:17;8.00;;;6.00;;
68144;SDS011;55400;51.824;-0.196;2023-04-15T10:15:17;8.70;;;5.50;;
68144;SDS011;55400;51.824;-0.196;2023-04-15T10:19:19;9.30;;;6.40;;
68144;SDS011;55400;51.824;-0.196;2023-04-15T10:23:18;10.40;;;5.80;;
68144;SDS011;55400;51.824;-0.196;2023-04-15T10:27:17;8.60;;;5.30;;
68144;SDS011;55400;51.824;-0.196;2023-04-15T10:31:18;11.20;;;5.80;;
68144;SDS011;55400;51.824;-0.196;2023-04-15T10:35:17;12.70;;;5.70;;
68144;SDS011;55400;51.824;-0.196;2023-04-15T10:43:24;7.10;;;5.20;;
68144;SDS011;55400;51.824;-0.196;2023-04-15T10:47:19;7.50;;;5.00;;
68144;SDS011;55400;51.824;-0.196;2023-04-15T10:51:26;9.50;;;4.90;;
68144;SDS011;55400;51.824;-0.196;2023-04-15T10:55:19;9.30;;;5.40;;
68144;SDS011;55400;51.824;-0.196;2023-04-15T11:03:35;9.60;;;4.70;;
68144;SDS011;55400;51.824;-0.196;2023-04-15T11:11:17;6.50;;;4.10;;
68144;SDS011;55400;51.824;-0.196;2023-04-15T11:15:27;8.20;;;3.60;;
68144;SDS011;55400;51.824;-0.196;2023-04-15T11:19:17;7.20;;;4.30;;
68144;SDS011;55400;51.824;-0.196;2023-04-15T11:23:18;6.50;;;3.70;;
68144;SDS011;55400;51.824;-0.196;2023-04-15T11:27:20;7.80;;;3.80;;
68144;SDS011;55400;51.824;-0.196;2023-04-15T11:31:17;8.70;;;3.80;;
68144;SDS011;55400;51.824;-0.196;2023-04-15T11:39:21;12.50;;;5.40;;
68144;SDS011;55400;51.824;-0.196;2023-04-15T11:43:19;11.80;;;4.70;;
68144;SDS011;55400;51.824;-0.196;2023-04-15T11:47:21;8.70;;;4.10;;
68144;SDS011;55400;51.824;-0.196;2023-04-15T11:51:17;7.30;;;4.20;;
68144;SDS011;55400;51.824;-0.196;2023-04-15T11:55:17;10.10;;;4.00;;
68144;SDS011;55400;51.824;-0.196;2023-04-15T11:59:17;7.30;;;4.20;;
68144;SDS011;55400;51.824;-0.196;2023-04-15T12:03:20;10.60;;;4.30;;
68144;SDS011;55400;51.824;-0.196;2023-04-15T12:07:17;6.70;;;4.10;;
68144;SDS011;55400;51.824;-0.196;2023-04-15T12:11:18;8.30;;;3.40;;
68144;SDS011;55400;51.824;-0.196;2023-04-15T12:15:20;8.40;;;3.90;;
68144;SDS011;55400;51.824;-0.196;2023-04-15T12:19:22;9.40;;;4.40;;
68144;SDS011;55400;51.824;-0.196;2023-04-15T12:23:18;8.40;;;4.00;;
68144;SDS011;55400;51.824;-0.196;2023-04-15T12:27:17;7.50;;;3.80;;
68144;SDS011;55400;51.824;-0.196;2023-04-15T12:31:17;11.60;;;3.60;;
68144;SDS011;55400;51.824;-0.196;2023-04-15T12:35:17;9.30;;;3.80;;
68144;SDS011;55400;51.824;-0.196;2023-04-15T12:39:21;7.60;;;3.30;;
68144;SDS011;55400;51.824;-0.196;2023-04-15T12:43:17;7.10;;;3.30;;
68144;SDS011;55400;51.824;-0.196;2023-04-15T12:47:17;8.00;;;3.30;;
68144;SDS011;55400;51.824;-0.196;2023-04-15T12:51:17;9.50;;;3.50;;
68144;SDS011;55400;51.824;-0.196;2023-04-15T12:55:17;8.60;;;3.70;;
68144;SDS011;55400;51.824;-0.196;2023-04-15T12:59:17;11.40;;;3.60;;
68144;SDS011;55400;51.824;-0.196;2023-04-15T13:03:17;10.40;;;3.40;;
68144;SDS011;55400;51.824;-0.196;2023-04-15T13:07:17;8.70;;;3.00;;
68144;SDS011;55400;51.824;-0.196;2023-04-15T13:11:17;8.30;;;3.50;;
68144;SDS011;55400;51.824;-0.196;2023-04-15T13:15:17;9.90;;;3.40;;
68144;SDS011;55400;51.824;-0.196;2023-04-15T13:19:17;6.70;;;3.10;;
68144;SDS011;55400;51.824;-0.196;2023-04-15T13:23:18;8.00;;;3.00;;
68144;SDS011;55400;51.824;-0.196;2023-04-15T13:27:17;9.20;;;3.30;;
68144;SDS011;55400;51.824;-0.196;2023-04-15T13:31:17;8.50;;;3.40;;
68144;SDS011;55400;51.824;-0.196;2023-04-15T13:35:18;8.10;;;2.90;;
68144;SDS011;55400;51.824;-0.196;2023-04-15T13:39:17;8.20;;;3.00;;
68144;SDS011;55400;51.824;-0.196;2023-04-15T13:43:17;8.60;;;3.00;;
68144;SDS011;55400;51.824;-0.196;2023-04-15T13:47:18;8.90;;;3.10;;
68144;SDS011;55400;51.824;-0.196;2023-04-15T13:51:17;10.10;;;3.00;;
68144;SDS011;55400;51.824;-0.196;2023-04-15T13:55:18;7.30;;;3.30;;
68144;SDS011;55400;51.824;-0.196;2023-04-15T13:59:17;9.30;;;3.20;;
68144;SDS011;55400;51.824;-0.196;2023-04-15T14:03:17;9.90;;;3.30;;
68144;SDS011;55400;51.824;-0.196;2023-04-15T14:07:17;8.90;;;3.20;;
68144;SDS011;55400;51.824;-0.196;2023-04-15T14:11:17;13.00;;;3.50;;
68144;SDS011;55400;51.824;-0.196;2023-04-15T14:15:17;6.60;;;3.20;;
68144;SDS011;55400;51.824;-0.196;2023-04-15T14:19:18;13.20;;;4.30;;
68144;SDS011;55400;51.824;-0.196;2023-04-15T14:23:18;7.90;;;3.30;;
68144;SDS011;55400;51.824;-0.196;2023-04-15T14:27:18;6.90;;;3.60;;
68144;SDS011;55400;51.824;-0.196;2023-04-15T14:31:18;8.60;;;3.40;;
68144;SDS011;55400;51.824;-0.196;2023-04-15T14:35:17;6.90;;;3.60;;
68144;SDS011;55400;51.824;-0.196;2023-04-15T14:39:18;11.50;;;3.40;;
68144;SDS011;55400;51.824;-0.196;2023-04-15T14:43:17;7.00;;;3.30;;
68144;SDS011;55400;51.824;-0.196;2023-04-15T14:47:17;8.00;;;3.50;;
68144;SDS011;55400;51.824;-0.196;2023-04-15T14:51:18;6.20;;;3.40;;
68144;SDS011;55400;51.824;-0.196;2023-04-15T14:55:17;9.70;;;3.60;;
68144;SDS011;55400;51.824;-0.196;2023-04-15T14:59:18;8.10;;;3.30;;
68144;SDS011;55400;51.824;-0.196;2023-04-15T15:03:18;7.30;;;3.30;;
68144;SDS011;55400;51.824;-0.196;2023-04-15T15:07:18;8.40;;;3.40;;
68144;SDS011;55400;51.824;-0.196;2023-04-15T15:11:18;7.80;;;2.80;;
68144;SDS011;55400;51.824;-0.196;2023-04-15T15:15:18;11.60;;;2.80;;
68144;SDS011;55400;51.824;-0.196;2023-04-15T15:19:18;7.30;;;3.00;;
68144;SDS011;55400;51.824;-0.196;2023-04-15T15:23:18;10.30;;;3.10;;
68144;SDS011;55400;51.824;-0.196;2023-04-15T15:27:18;8.50;;;3.20;;
68144;SDS011;55400;51.824;-0.196;2023-04-15T15:31:18;8.20;;;3.00;;
68144;SDS011;55400;51.824;-0.196;2023-04-15T15:35:18;9.50;;;3.50;;
68144;SDS011;55400;51.824;-0.196;2023-04-15T15:39:18;9.00;;;3.50;;
68144;SDS011;55400;51.824;-0.196;2023-04-15T15:43:18;8.70;;;3.40;;
68144;SDS011;55400;51.824;-0.196;2023-04-15T15:47:18;9.50;;;3.20;;
68144;SDS011;55400;51.824;-0.196;2023-04-15T15:51:19;8.20;;;3.00;;
68144;SDS011;55400;51.824;-0.196;2023-04-15T15:55:18;8.40;;;3.30;;
68144;SDS011;55400;51.824;-0.196;2023-04-15T15:59:18;8.20;;;3.40;;
68144;SDS011;55400;51.824;-0.196;2023-04-15T16:03:18;11.30;;;3.50;;
68144;SDS011;55400;51.824;-0.196;2023-04-15T16:07:18;6.90;;;3.10;;
68144;SDS011;55400;51.824;-0.196;2023-04-15T16:11:18;7.20;;;3.20;;
68144;SDS011;55400;51.824;-0.196;2023-04-15T16:15:18;7.70;;;3.00;;
68144;SDS011;55400;51.824;-0.196;2023-04-15T16:19:19;10.80;;;3.00;;
68144;SDS011;55400;51.824;-0.196;2023-04-15T16:23:18;12.30;;;3.20;;
68144;SDS011;55400;51.824;-0.196;2023-04-15T16:27:18;7.30;;;2.90;;
68144;SDS011;55400;51.824;-0.196;2023-04-15T16:31:18;8.00;;;2.80;;
68144;SDS011;55400;51.824;-0.196;2023-04-15T16:35:18;6.90;;;3.00;;
68144;SDS011;55400;51.824;-0.196;2023-04-15T16:39:18;8.50;;;3.10;;
68144;SDS011;55400;51.824;-0.196;2023-04-15T16:43:18;7.90;;;2.80;;
68144;SDS011;55400;51.824;-0.196;2023-04-15T16:47:18;8.90;;;2.70;;
68144;SDS011;55400;51.824;-0.196;2023-04-15T16:51:18;8.50;;;3.00;;
68144;SDS011;55400;51.824;-0.196;2023-04-15T16:55:18;8.40;;;3.10;;
68144;SDS011;55400;51.824;-0.196;2023-04-15T16:59:18;9.40;;;2.90;;
68144;SDS011;55400;51.824;-0.196;2023-04-15T17:03:18;8.80;;;2.90;;
68144;SDS011;55400;51.824;-0.196;2023-04-15T17:07:18;8.00;;;3.30;;
68144;SDS011;55400;51.824;-0.196;2023-04-15T17:11:18;11.10;;;3.10;;
68144;SDS011;55400;51.824;-0.196;2023-04-15T17:15:19;7.40;;;3.10;;
68144;SDS011;55400;51.824;-0.196;2023-04-15T17:19:18;10.20;;;3.40;;
68144;SDS011;55400;51.824;-0.196;2023-04-15T17:27:18;8.00;;;3.00;;
68144;SDS011;55400;51.824;-0.196;2023-04-15T17:31:18;7.00;;;3.10;;
68144;SDS011;55400;51.824;-0.196;2023-04-15T17:35:18;6.40;;;2.60;;
68144;SDS011;55400;51.824;-0.196;2023-04-15T17:39:18;6.30;;;2.80;;
68144;SDS011;55400;51.824;-0.196;2023-04-15T17:43:18;10.60;;;3.10;;
68144;SDS011;55400;51.824;-0.196;2023-04-15T17:47:18;6.20;;;2.90;;
68144;SDS011;55400;51.824;-0.196;2023-04-15T17:51:18;8.50;;;3.50;;
68144;SDS011;55400;51.824;-0.196;2023-04-15T17:55:18;8.60;;;3.70;;
68144;SDS011;55400;51.824;-0.196;2023-04-15T17:59:18;9.30;;;3.40;;
68144;SDS011;55400;51.824;-0.196;2023-04-15T18:03:18;9.40;;;3.70;;
68144;SDS011;55400;51.824;-0.196;2023-04-15T18:07:18;10.40;;;3.60;;
68144;SDS011;55400;51.824;-0.196;2023-04-15T18:11:18;8.00;;;3.40;;
68144;SDS011;55400;51.824;-0.196;2023-04-15T18:15:18;9.80;;;3.60;;
68144;SDS011;55400;51.824;-0.196;2023-04-15T18:19:18;9.70;;;3.70;;
68144;SDS011;55400;51.824;-0.196;2023-04-15T18:23:18;9.00;;;3.70;;
68144;SDS011;55400;51.824;-0.196;2023-04-15T18:27:18;10.90;;;4.30;;
68144;SDS011;55400;51.824;-0.196;2023-04-15T18:31:18;9.70;;;4.00;;
68144;SDS011;55400;51.824;-0.196;2023-04-15T18:35:18;11.30;;;4.00;;
68144;SDS011;55400;51.824;-0.196;2023-04-15T18:39:18;8.70;;;3.60;;
68144;SDS011;55400;51.824;-0.196;2023-04-15T18:43:18;10.80;;;3.80;;
68144;SDS011;55400;51.824;-0.196;2023-04-15T18:47:18;9.80;;;3.30;;
68144;SDS011;55400;51.824;-0.196;2023-04-15T18:51:18;9.20;;;3.60;;
68144;SDS011;55400;51.824;-0.196;2023-04-15T18:55:18;6.70;;;3.40;;
68144;SDS011;55400;51.824;-0.196;2023-04-15T18:59:18;10.40;;;3.50;;
68144;SDS011;55400;51.824;-0.196;2023-04-15T19:03:18;8.20;;;3.70;;
68144;SDS011;55400;51.824;-0.196;2023-04-15T19:07:18;10.50;;;3.50;;
68144;SDS011;55400;51.824;-0.196;2023-04-15T19:11:19;8.00;;;3.50;;
68144;SDS011;55400;51.824;-0.196;2023-04-15T19:15:18;7.50;;;3.60;;
68144;SDS011;55400;51.824;-0.196;2023-04-15T19:19:19;9.70;;;3.60;;
68144;SDS011;55400;51.824;-0.196;2023-04-15T19:23:18;9.30;;;3.30;;
68144;SDS011;55400;51.824;-0.196;2023-04-15T19:27:19;9.30;;;3.30;;
68144;SDS011;55400;51.824;-0.196;2023-04-15T19:31:18;9.40;;;3.30;;
68144;SDS011;55400;51.824;-0.196;2023-04-15T19:35:19;11.00;;;3.70;;
68144;SDS011;55400;51.824;-0.196;2023-04-15T19:39:18;9.70;;;3.40;;
68144;SDS011;55400;51.824;-0.196;2023-04-15T19:43:18;22.90;;;15.30;;
68144;SDS011;55400;51.824;-0.196;2023-04-15T19:47:19;9.20;;;4.00;;
68144;SDS011;55400;51.824;-0.196;2023-04-15T19:51:18;11.00;;;3.60;;
68144;SDS011;55400;51.824;-0.196;2023-04-15T19:55:18;10.20;;;4.80;;
68144;SDS011;55400;51.824;-0.196;2023-04-15T19:59:19;10.70;;;4.20;;
68144;SDS011;55400;51.824;-0.196;2023-04-15T20:03:18;8.40;;;3.10;;
68144;SDS011;55400;51.824;-0.196;2023-04-15T20:07:18;10.90;;;3.30;;
68144;SDS011;55400;51.824;-0.196;2023-04-15T20:11:18;8.20;;;3.10;;
68144;SDS011;55400;51.824;-0.196;2023-04-15T20:15:19;8.20;;;3.20;;
68144;SDS011;55400;51.824;-0.196;2023-04-15T20:19:18;9.50;;;3.70;;
68144;SDS011;55400;51.824;-0.196;2023-04-15T20:27:19;13.30;;;5.30;;
68144;SDS011;55400;51.824;-0.196;2023-04-15T20:31:19;13.40;;;5.50;;
68144;SDS011;55400;51.824;-0.196;2023-04-15T20:35:19;10.40;;;5.10;;
68144;SDS011;55400;51.824;-0.196;2023-04-15T20:39:18;15.10;;;5.90;;
68144;SDS011;55400;51.824;-0.196;2023-04-15T20:43:18;9.70;;;4.50;;
68144;SDS011;55400;51.824;-0.196;2023-04-15T20:47:19;8.80;;;4.40;;
68144;SDS011;55400;51.824;-0.196;2023-04-15T20:51:19;11.00;;;4.50;;
68144;SDS011;55400;51.824;-0.196;2023-04-15T20:55:19;11.10;;;4.40;;
68144;SDS011;55400;51.824;-0.196;2023-04-15T20:59:19;10.10;;;4.70;;
68144;SDS011;55400;51.824;-0.196;2023-04-15T21:03:19;9.70;;;4.90;;
68144;SDS011;55400;51.824;-0.196;2023-04-15T21:07:19;9.20;;;5.00;;
68144;SDS011;55400;51.824;-0.196;2023-04-15T21:11:18;10.30;;;5.40;;
68144;SDS011;55400;51.824;-0.196;2023-04-15T21:15:19;15.90;;;5.90;;
68144;SDS011;55400;51.824;-0.196;2023-04-15T21:19:19;11.20;;;5.30;;
68144;SDS011;55400;51.824;-0.196;2023-04-15T21:23:19;11.20;;;5.90;;
68144;SDS011;55400;51.824;-0.196;2023-04-15T21:31:19;14.10;;;4.50;;
68144;SDS011;55400;51.824;-0.196;2023-04-15T21:35:19;10.60;;;4.50;;
68144;SDS011;55400;51.824;-0.196;2023-04-15T21:39:19;10.40;;;4.90;;
68144;SDS011;55400;51.824;-0.196;2023-04-15T21:43:19;16.30;;;5.30;;
68144;SDS011;55400;51.824;-0.196;2023-04-15T21:47:19;10.10;;;5.30;;
68144;SDS011;55400;51.824;-0.196;2023-04-15T21:51:19;11.00;;;5.10;;
68144;SDS011;55400;51.824;-0.196;2023-04-15T21:55:19;10.20;;;5.20;;
68144;SDS011;55400;51.824;-0.196;2023-04-15T21:59:19;12.00;;;5.20;;
68144;SDS011;55400;51.824;-0.196;2023-04-15T22:03:19;11.80;;;4.90;;
68144;SDS011;55400;51.824;-0.196;2023-04-15T22:07:19;11.30;;;4.60;;
68144;SDS011;55400;51.824;-0.196;2023-04-15T22:11:20;12.20;;;4.90;;
68144;SDS011;55400;51.824;-0.196;2023-04-15T22:15:19;7.70;;;5.00;;
68144;SDS011;55400;51.824;-0.196;2023-04-15T22:19:19;8.70;;;5.10;;
68144;SDS011;55400;51.824;-0.196;2023-04-15T22:23:19;10.20;;;5.50;;
68144;SDS011;55400;51.824;-0.196;2023-04-15T22:27:19;10.40;;;5.40;;
68144;SDS011;55400;51.824;-0.196;2023-04-15T22:31:19;10.10;;;5.50;;
68144;SDS011;55400;51.824;-0.196;2023-04-15T22:35:19;9.30;;;5.70;;
68144;SDS011;55400;51.824;-0.196;2023-04-15T22:39:19;10.30;;;5.50;;
68144;SDS011;55400;51.824;-0.196;2023-04-15T22:43:19;10.50;;;5.20;;
68144;SDS011;55400;51.824;-0.196;2023-04-15T22:47:19;12.80;;;5.60;;
68144;SDS011;55400;51.824;-0.196;2023-04-15T22:55:19;10.50;;;5.40;;
68144;SDS011;55400;51.824;-0.196;2023-04-15T22:59:19;8.70;;;5.30;;
68144;SDS011;55400;51.824;-0.196;2023-04-15T23:03:19;9.20;;;4.80;;
68144;SDS011;55400;51.824;-0.196;2023-04-15T23:07:19;10.00;;;4.90;;
68144;SDS011;55400;51.824;-0.196;2023-04-15T23:11:19;10.30;;;4.50;;
68144;SDS011;55400;51.824;-0.196;2023-04-15T23:15:19;7.30;;;4.50;;
68144;SDS011;55400;51.824;-0.196;2023-04-15T23:19:19;8.60;;;4.70;;
68144;SDS011;55400;51.824;-0.196;2023-04-15T23:23:19;7.90;;;4.60;;
68144;SDS011;55400;51.824;-0.196;2023-04-15T23:27:19;12.10;;;4.90;;
68144;SDS011;55400;51.824;-0.196;2023-04-15T23:31:19;10.10;;;5.10;;
68144;SDS011;55400;51.824;-0.196;2023-04-15T23:35:19;11.50;;;5.30;;
68144;SDS011;55400;51.824;-0.196;2023-04-15T23:43:19;10.20;;;6.70;;
68144;SDS011;55400;51.824;-0.196;2023-04-15T23:47:19;12.80;;;6.70;;
68144;SDS011;55400;51.824;-0.196;2023-04-15T23:51:19;12.60;;;6.90;;
68144;SDS011;55400;51.824;-0.196;2023-04-15T23:59:19;12.20;;;7.80;;
